createdAt,value
2019-05-15T00:00:38.734Z,0.00
2019-05-15T00:01:40.948Z,0.00
2019-05-15T00:02:38.821Z,0.00
2019-05-15T00:03:39.063Z,0.00
2019-05-15T00:04:38.334Z,0.00
2019-05-15T00:05:39.083Z,0.00
2019-05-15T00:06:39.103Z,0.00
2019-05-15T00:07:39.315Z,0.00
2019-05-15T00:08:38.657Z,0.00
2019-05-15T00:09:41.792Z,0.00
2019-05-15T00:10:38.920Z,0.00
2019-05-15T00:11:38.966Z,0.00
2019-05-15T00:12:39.587Z,0.00
2019-05-15T00:13:39.005Z,0.00
2019-05-15T00:14:38.818Z,0.00
2019-05-15T00:15:40.182Z,0.00
2019-05-15T00:16:38.668Z,0.00
2019-05-15T00:17:39.347Z,0.00
2019-05-15T00:18:38.985Z,0.00
2019-05-15T00:19:38.948Z,0.00
2019-05-15T00:20:39.339Z,0.00
2019-05-15T00:21:38.386Z,0.00
2019-05-15T00:22:38.794Z,0.00
2019-05-15T00:23:38.767Z,0.00
2019-05-15T00:24:38.168Z,0.00
2019-05-15T00:25:39.465Z,0.00
2019-05-15T00:26:38.496Z,0.00
2019-05-15T00:27:38.595Z,0.00
2019-05-15T00:28:38.836Z,0.00
2019-05-15T00:29:38.326Z,0.00
2019-05-15T00:30:38.769Z,0.00
2019-05-15T00:31:38.770Z,0.00
2019-05-15T00:32:39.287Z,0.00
2019-05-15T00:33:39.459Z,0.00
2019-05-15T00:34:37.982Z,0.00
2019-05-15T00:35:39.326Z,0.00
2019-05-15T00:36:38.261Z,0.00
2019-05-15T00:37:38.725Z,0.00
2019-05-15T00:38:39.106Z,0.00
2019-05-15T00:39:39.035Z,0.00
2019-05-15T00:40:39.179Z,0.00
2019-05-15T00:41:50.509Z,0.00
2019-05-15T00:42:38.737Z,0.00
2019-05-15T00:43:38.663Z,0.00
2019-05-15T00:44:38.740Z,0.00
2019-05-15T00:45:38.521Z,0.00
2019-05-15T00:46:38.413Z,0.00
2019-05-15T00:47:39.633Z,0.00
2019-05-15T00:48:39.770Z,0.00
2019-05-15T00:49:38.248Z,0.00
2019-05-15T00:50:39.309Z,0.00
2019-05-15T00:51:39.005Z,0.00
2019-05-15T00:52:39.047Z,0.00
2019-05-15T00:53:38.992Z,0.00
2019-05-15T00:54:38.866Z,0.00
2019-05-15T00:55:37.959Z,0.00
2019-05-15T00:56:39.148Z,0.00
2019-05-15T00:57:39.185Z,0.00
2019-05-15T00:58:39.969Z,0.00
2019-05-15T00:59:38.956Z,0.00
2019-05-15T01:00:38.161Z,0.00
2019-05-15T01:01:38.202Z,0.00
2019-05-15T01:02:38.806Z,0.00
2019-05-15T01:03:38.814Z,0.00
2019-05-15T01:04:38.884Z,0.00
2019-05-15T01:05:38.718Z,0.00
2019-05-15T01:06:38.935Z,0.00
2019-05-15T01:07:39.188Z,0.00
2019-05-15T01:08:39.333Z,0.00
2019-05-15T01:09:38.537Z,0.00
2019-05-15T01:10:38.603Z,0.00
2019-05-15T01:11:38.173Z,0.00
2019-05-15T01:12:38.010Z,0.00
2019-05-15T01:13:38.897Z,0.00
2019-05-15T01:14:38.547Z,0.00
2019-05-15T01:15:38.709Z,0.00
2019-05-15T01:16:38.335Z,0.00
2019-05-15T01:17:39.122Z,0.00
2019-05-15T01:18:38.518Z,0.00
2019-05-15T01:19:37.960Z,0.00
2019-05-15T01:20:39.172Z,0.00
2019-05-15T01:21:38.529Z,0.00
2019-05-15T01:22:39.339Z,0.00
2019-05-15T01:23:39.006Z,0.00
2019-05-15T01:24:38.987Z,0.00
2019-05-15T01:25:39.047Z,0.00
2019-05-15T01:26:38.511Z,0.00
2019-05-15T01:27:38.567Z,0.00
2019-05-15T01:28:38.466Z,0.00
2019-05-15T01:29:44.003Z,0.00
2019-05-15T01:30:39.342Z,0.00
2019-05-15T01:31:38.023Z,0.00
2019-05-15T01:32:39.329Z,0.00
2019-05-15T01:33:39.214Z,0.00
2019-05-15T01:34:38.421Z,0.00
2019-05-15T01:35:38.302Z,0.00
2019-05-15T01:36:38.231Z,0.00
2019-05-15T01:37:39.162Z,0.00
2019-05-15T01:38:38.947Z,0.00
2019-05-15T01:39:38.478Z,0.00
2019-05-15T01:40:38.485Z,0.00
2019-05-15T01:41:38.679Z,0.00
2019-05-15T01:42:38.680Z,0.00
2019-05-15T01:43:38.123Z,0.00
2019-05-15T01:44:38.895Z,0.00
2019-05-15T01:45:39.078Z,0.00
2019-05-15T01:46:39.337Z,0.00
2019-05-15T01:47:38.837Z,0.00
2019-05-15T01:48:38.730Z,0.00
2019-05-15T01:49:38.375Z,0.00
2019-05-15T01:50:38.858Z,0.00
2019-05-15T01:51:38.494Z,0.00
2019-05-15T01:52:39.027Z,0.00
2019-05-15T01:53:38.541Z,0.00
2019-05-15T01:54:38.321Z,0.00
2019-05-15T01:55:39.126Z,0.00
2019-05-15T01:56:38.672Z,0.00
2019-05-15T01:57:38.408Z,0.00
2019-05-15T01:58:38.161Z,0.00
2019-05-15T01:59:38.896Z,0.00
2019-05-15T02:00:38.871Z,0.00
2019-05-15T02:01:39.079Z,0.00
2019-05-15T02:02:38.929Z,0.00
2019-05-15T02:03:38.613Z,0.00
2019-05-15T02:04:39.178Z,0.00
2019-05-15T02:05:38.820Z,0.00
2019-05-15T02:06:38.920Z,0.00
2019-05-15T02:07:38.736Z,0.00
2019-05-15T02:08:39.021Z,0.00
2019-05-15T02:09:38.529Z,0.00
2019-05-15T02:10:39.284Z,0.00
2019-05-15T02:11:38.244Z,0.00
2019-05-15T02:12:38.742Z,0.00
2019-05-15T02:13:38.722Z,0.00
2019-05-15T02:14:39.019Z,0.00
2019-05-15T02:15:39.114Z,0.00
2019-05-15T02:16:39.119Z,0.00
2019-05-15T02:17:38.915Z,0.00
2019-05-15T02:18:38.867Z,0.00
2019-05-15T02:19:36.514Z,0.00
2019-05-15T02:20:38.782Z,0.00
2019-05-15T02:21:38.026Z,0.00
2019-05-15T02:22:42.014Z,0.00
2019-05-15T02:23:38.821Z,0.00
2019-05-15T02:24:38.859Z,0.00
2019-05-15T02:25:38.640Z,0.00
2019-05-15T02:26:38.681Z,0.00
2019-05-15T02:27:38.946Z,0.00
2019-05-15T02:28:38.412Z,0.00
2019-05-15T02:29:37.808Z,0.00
2019-05-15T02:30:39.664Z,0.00
2019-05-15T02:31:39.142Z,0.00
2019-05-15T02:32:39.544Z,0.00
2019-05-15T02:33:39.537Z,0.00
2019-05-15T02:34:39.212Z,0.00
2019-05-15T02:35:38.866Z,0.00
2019-05-15T02:36:39.735Z,0.00
2019-05-15T02:37:40.347Z,0.00
2019-05-15T02:38:40.394Z,0.00
2019-05-15T02:39:38.938Z,0.00
2019-05-15T02:40:36.260Z,0.00
2019-05-15T02:41:39.396Z,0.00
2019-05-15T02:42:39.522Z,0.00
2019-05-15T02:43:38.759Z,0.00
2019-05-15T02:44:39.310Z,0.00
2019-05-15T02:45:40.803Z,0.00
2019-05-15T02:46:39.231Z,0.00
2019-05-15T02:47:39.093Z,0.00
2019-05-15T02:48:36.169Z,0.00
2019-05-15T02:49:39.378Z,0.00
2019-05-15T02:50:39.038Z,0.00
2019-05-15T02:51:36.148Z,0.00
2019-05-15T02:52:38.846Z,0.00
2019-05-15T02:53:39.233Z,0.00
2019-05-15T02:54:36.105Z,0.00
2019-05-15T02:55:36.107Z,0.00
2019-05-15T02:56:38.970Z,0.00
2019-05-15T02:57:39.163Z,0.00
2019-05-15T02:58:36.076Z,0.00
2019-05-15T02:59:39.326Z,0.00
2019-05-15T03:00:47.012Z,0.00
2019-05-15T03:01:40.464Z,0.00
2019-05-15T03:02:36.025Z,0.00
2019-05-15T03:03:38.389Z,0.00
2019-05-15T03:04:36.013Z,0.00
2019-05-15T03:05:35.990Z,0.00
2019-05-15T03:06:38.647Z,0.00
2019-05-15T03:07:35.965Z,0.00
2019-05-15T03:08:35.955Z,0.00
2019-05-15T03:09:35.950Z,4.00
2019-05-15T03:10:35.938Z,4.00
2019-05-15T03:11:35.964Z,4.00
2019-05-15T03:12:35.914Z,0.00
2019-05-15T03:13:38.955Z,4.00
2019-05-15T03:14:35.899Z,4.00
2019-05-15T03:15:39.737Z,4.00
2019-05-15T03:16:39.115Z,4.00
2019-05-15T03:17:39.750Z,4.00
2019-05-15T03:18:35.891Z,8.00
2019-05-15T03:19:39.009Z,8.00
2019-05-15T03:20:38.634Z,8.00
2019-05-15T03:21:38.665Z,8.00
2019-05-15T03:22:35.801Z,12.00
2019-05-15T03:23:35.790Z,12.00
2019-05-15T03:24:35.780Z,12.00
2019-05-15T03:25:35.780Z,16.00
2019-05-15T03:26:39.176Z,16.00
2019-05-15T03:27:39.165Z,20.00
2019-05-15T03:28:38.776Z,24.00
2019-05-15T03:29:35.721Z,24.00
2019-05-15T03:31:06.438Z,28.00
2019-05-15T03:31:53.434Z,28.00
2019-05-15T03:32:46.799Z,32.00
2019-05-15T03:33:43.908Z,36.00
2019-05-15T03:34:44.514Z,40.00
2019-05-15T03:35:41.964Z,44.00
2019-05-15T03:36:36.656Z,44.00
2019-05-15T03:37:35.671Z,52.00
2019-05-15T03:38:39.108Z,56.00
2019-05-15T03:39:35.618Z,64.00
2019-05-15T03:40:35.619Z,68.00
2019-05-15T03:41:35.593Z,76.00
2019-05-15T03:42:35.587Z,80.00
2019-05-15T03:43:39.109Z,84.00
2019-05-15T03:44:35.629Z,88.00
2019-05-15T03:45:35.567Z,92.00
2019-05-15T03:46:35.537Z,96.00
2019-05-15T03:47:35.570Z,104.00
2019-05-15T03:48:35.537Z,104.00
2019-05-15T03:49:35.551Z,112.00
2019-05-15T03:50:35.516Z,116.00
2019-05-15T03:51:35.482Z,116.00
2019-05-15T03:52:35.474Z,120.00
2019-05-15T03:53:35.473Z,124.00
2019-05-15T03:54:38.968Z,128.00
2019-05-15T03:55:35.467Z,128.00
2019-05-15T03:56:39.028Z,132.00
2019-05-15T03:57:35.415Z,132.00
2019-05-15T03:58:35.408Z,132.00
2019-05-15T03:59:35.398Z,140.00
2019-05-15T04:00:35.391Z,140.00
2019-05-15T04:01:39.838Z,140.00
2019-05-15T04:02:39.008Z,144.00
2019-05-15T04:03:38.815Z,148.00
2019-05-15T04:04:35.353Z,160.00
2019-05-15T04:05:38.632Z,168.00
2019-05-15T04:06:35.338Z,172.00
2019-05-15T04:07:35.314Z,180.00
2019-05-15T04:08:38.889Z,168.00
2019-05-15T04:09:38.473Z,192.00
2019-05-15T04:10:35.296Z,196.00
2019-05-15T04:11:38.540Z,200.00
2019-05-15T04:12:35.273Z,204.00
2019-05-15T04:13:35.250Z,204.00
2019-05-15T04:14:35.365Z,208.00
2019-05-15T04:15:35.230Z,216.00
2019-05-15T04:16:35.235Z,224.00
2019-05-15T04:17:35.216Z,232.00
2019-05-15T04:18:35.187Z,236.00
2019-05-15T04:19:35.185Z,248.00
2019-05-15T04:20:35.233Z,252.00
2019-05-15T04:21:35.179Z,260.00
2019-05-15T04:22:35.174Z,268.00
2019-05-15T04:23:35.198Z,280.00
2019-05-15T04:24:35.137Z,288.00
2019-05-15T04:25:35.122Z,300.00
2019-05-15T04:26:35.144Z,308.00
2019-05-15T04:27:35.135Z,316.00
2019-05-15T04:28:35.083Z,328.00
2019-05-15T04:29:35.093Z,336.00
2019-05-15T04:30:35.118Z,348.00
2019-05-15T04:31:50.202Z,360.00
2019-05-15T04:32:39.511Z,368.00
2019-05-15T04:33:35.028Z,376.00
2019-05-15T04:34:35.017Z,384.00
2019-05-15T04:35:35.004Z,396.00
2019-05-15T04:36:35.011Z,408.00
2019-05-15T04:37:34.981Z,412.00
2019-05-15T04:38:34.974Z,416.00
2019-05-15T04:39:34.964Z,420.00
2019-05-15T04:40:34.947Z,416.00
2019-05-15T04:41:34.980Z,416.00
2019-05-15T04:42:34.927Z,416.00
2019-05-15T04:43:43.742Z,416.00
2019-05-15T04:44:39.231Z,424.00
2019-05-15T04:45:35.584Z,428.00
2019-05-15T04:46:34.901Z,440.00
2019-05-15T04:47:34.871Z,460.00
2019-05-15T04:48:34.860Z,476.00
2019-05-15T04:49:34.850Z,496.00
2019-05-15T04:50:34.931Z,520.00
2019-05-15T04:51:34.840Z,536.00
2019-05-15T04:52:34.830Z,548.00
2019-05-15T04:53:34.809Z,568.00
2019-05-15T04:54:34.818Z,584.00
2019-05-15T04:55:34.788Z,592.00
2019-05-15T04:56:34.786Z,596.00
2019-05-15T04:57:34.798Z,596.00
2019-05-15T04:58:34.757Z,592.00
2019-05-15T04:59:34.788Z,592.00
2019-05-15T05:00:34.807Z,584.00
2019-05-15T05:01:34.730Z,572.00
2019-05-15T05:02:34.714Z,560.00
2019-05-15T05:03:35.028Z,548.00
2019-05-15T05:04:34.688Z,548.00
2019-05-15T05:05:34.679Z,552.00
2019-05-15T05:06:34.786Z,552.00
2019-05-15T05:07:34.743Z,564.00
2019-05-15T05:08:34.648Z,572.00
2019-05-15T05:09:34.635Z,576.00
2019-05-15T05:10:34.620Z,584.00
2019-05-15T05:11:34.642Z,592.00
2019-05-15T05:12:34.615Z,600.00
2019-05-15T05:13:34.607Z,612.00
2019-05-15T05:14:34.575Z,628.00
2019-05-15T05:15:34.566Z,644.00
2019-05-15T05:16:34.556Z,668.00
2019-05-15T05:17:34.592Z,696.00
2019-05-15T05:18:34.533Z,716.00
2019-05-15T05:19:34.522Z,732.00
2019-05-15T05:20:34.510Z,760.00
2019-05-15T05:21:34.499Z,784.00
2019-05-15T05:22:34.526Z,804.00
2019-05-15T05:23:34.482Z,828.00
2019-05-15T05:24:34.468Z,852.00
2019-05-15T05:25:34.454Z,872.00
2019-05-15T05:26:34.444Z,896.00
2019-05-15T05:27:34.455Z,924.00
2019-05-15T05:28:34.422Z,948.00
2019-05-15T05:29:34.413Z,960.00
2019-05-15T05:30:34.427Z,964.00
2019-05-15T05:31:34.388Z,960.00
2019-05-15T05:32:35.156Z,952.00
2019-05-15T05:33:34.372Z,936.00
2019-05-15T05:34:34.358Z,912.00
2019-05-15T05:35:34.347Z,880.00
2019-05-15T05:36:34.338Z,848.00
2019-05-15T05:37:34.345Z,816.00
2019-05-15T05:38:34.320Z,784.00
2019-05-15T05:39:34.310Z,756.00
2019-05-15T05:40:34.290Z,724.00
2019-05-15T05:41:34.311Z,704.00
2019-05-15T05:42:34.295Z,688.00
2019-05-15T05:43:34.270Z,688.00
2019-05-15T05:44:34.247Z,692.00
2019-05-15T05:45:34.236Z,704.00
2019-05-15T05:46:34.231Z,724.00
2019-05-15T05:47:34.279Z,764.00
2019-05-15T05:48:34.205Z,800.00
2019-05-15T05:49:34.231Z,840.00
2019-05-15T05:50:34.181Z,884.00
2019-05-15T05:51:34.171Z,904.00
2019-05-15T05:52:34.176Z,928.00
2019-05-15T05:53:34.155Z,948.00
2019-05-15T05:54:34.140Z,968.00
2019-05-15T05:55:34.127Z,984.00
2019-05-15T05:56:34.170Z,1012.00
2019-05-15T05:57:34.109Z,1040.00
2019-05-15T05:58:34.100Z,1076.00
2019-05-15T05:59:34.157Z,1112.00
2019-05-15T06:00:34.075Z,1148.00
2019-05-15T06:01:36.994Z,1200.00
2019-05-15T06:02:44.787Z,1248.00
2019-05-15T06:03:35.046Z,1292.00
2019-05-15T06:04:34.038Z,1328.00
2019-05-15T06:05:34.032Z,1348.00
2019-05-15T06:06:34.012Z,1344.00
2019-05-15T06:07:35.477Z,1376.00
2019-05-15T06:08:33.994Z,1428.00
2019-05-15T06:09:33.979Z,1464.00
2019-05-15T06:10:33.970Z,1460.00
2019-05-15T06:11:33.966Z,1472.00
2019-05-15T06:12:33.953Z,1472.00
2019-05-15T06:13:33.932Z,1508.00
2019-05-15T06:14:33.926Z,1532.00
2019-05-15T06:15:33.929Z,1544.00
2019-05-15T06:16:33.909Z,1564.00
2019-05-15T06:17:33.923Z,1576.00
2019-05-15T06:18:33.942Z,1592.00
2019-05-15T06:19:33.866Z,1616.00
2019-05-15T06:20:33.854Z,1624.00
2019-05-15T06:21:33.883Z,1620.00
2019-05-15T06:22:33.837Z,1612.00
2019-05-15T06:23:35.837Z,1604.00
2019-05-15T06:24:33.811Z,1592.00
2019-05-15T06:25:33.820Z,1572.00
2019-05-15T06:26:33.791Z,1564.00
2019-05-15T06:27:33.788Z,1580.00
2019-05-15T06:28:33.797Z,1608.00
2019-05-15T06:29:33.759Z,1644.00
2019-05-15T06:30:33.747Z,1680.00
2019-05-15T06:31:33.743Z,1708.00
2019-05-15T06:32:33.728Z,1736.00
2019-05-15T06:33:33.726Z,1760.00
2019-05-15T06:34:33.724Z,1776.00
2019-05-15T06:35:33.722Z,1800.00
2019-05-15T06:36:33.679Z,1812.00
2019-05-15T06:37:33.669Z,1792.00
2019-05-15T06:38:33.711Z,1808.00
2019-05-15T06:39:33.669Z,1840.00
2019-05-15T06:40:33.642Z,1880.00
2019-05-15T06:41:34.080Z,1960.00
2019-05-15T06:42:33.623Z,2020.00
2019-05-15T06:43:33.606Z,2056.00
2019-05-15T06:44:33.600Z,2104.00
2019-05-15T06:45:33.586Z,2144.00
2019-05-15T06:46:33.593Z,2184.00
2019-05-15T06:47:33.561Z,2180.00
2019-05-15T06:48:33.560Z,2160.00
2019-05-15T06:49:33.539Z,2108.00
2019-05-15T06:50:33.542Z,2004.00
2019-05-15T06:51:33.523Z,1880.00
2019-05-15T06:52:33.531Z,1800.00
2019-05-15T06:53:33.589Z,1732.00
2019-05-15T06:54:33.546Z,1684.00
2019-05-15T06:55:33.503Z,1628.00
2019-05-15T06:56:33.485Z,1580.00
2019-05-15T06:57:33.452Z,1576.00
2019-05-15T06:58:33.459Z,1568.00
2019-05-15T06:59:33.429Z,1536.00
2019-05-15T07:00:33.421Z,1532.00
2019-05-15T07:01:33.407Z,1544.00
2019-05-15T07:02:33.430Z,1560.00
2019-05-15T07:03:33.400Z,1568.00
2019-05-15T07:04:33.375Z,1560.00
2019-05-15T07:05:33.374Z,1540.00
2019-05-15T07:06:33.354Z,1528.00
2019-05-15T07:07:33.341Z,1536.00
2019-05-15T07:08:33.346Z,1540.00
2019-05-15T07:09:33.326Z,1544.00
2019-05-15T07:10:33.330Z,1592.00
2019-05-15T07:11:33.302Z,1624.00
2019-05-15T07:12:33.288Z,1672.00
2019-05-15T07:13:33.300Z,1732.00
2019-05-15T07:14:33.280Z,1768.00
2019-05-15T07:15:33.299Z,1792.00
2019-05-15T07:16:33.243Z,1828.00
2019-05-15T07:17:33.238Z,1868.00
2019-05-15T07:18:33.235Z,1916.00
2019-05-15T07:19:33.215Z,1964.00
2019-05-15T07:20:33.205Z,2036.00
2019-05-15T07:21:33.203Z,2096.00
2019-05-15T07:22:33.188Z,2176.00
2019-05-15T07:23:33.179Z,2228.00
2019-05-15T07:24:33.165Z,2272.00
2019-05-15T07:25:33.150Z,2252.00
2019-05-15T07:26:33.144Z,2208.00
2019-05-15T07:27:33.123Z,2144.00
2019-05-15T07:28:33.159Z,2100.00
2019-05-15T07:29:33.136Z,2100.00
2019-05-15T07:30:33.093Z,2124.00
2019-05-15T07:31:33.088Z,2204.00
2019-05-15T07:32:33.074Z,2284.00
2019-05-15T07:33:39.371Z,2348.00
2019-05-15T07:34:34.051Z,2440.00
2019-05-15T07:35:33.037Z,2528.00
2019-05-15T07:36:33.027Z,2640.00
2019-05-15T07:37:33.017Z,2800.00
2019-05-15T07:38:33.006Z,2972.00
2019-05-15T07:39:33.000Z,3172.00
2019-05-15T07:40:32.987Z,3288.00
2019-05-15T07:41:32.975Z,3360.00
2019-05-15T07:42:32.960Z,3408.00
2019-05-15T07:43:32.950Z,3388.00
2019-05-15T07:44:32.956Z,3412.00
2019-05-15T07:45:32.941Z,3436.00
2019-05-15T07:46:32.931Z,3508.00
2019-05-15T07:47:32.911Z,3716.00
2019-05-15T07:48:32.896Z,4008.00
2019-05-15T07:49:32.900Z,4320.00
2019-05-15T07:50:32.891Z,4588.00
2019-05-15T07:51:32.870Z,4708.00
2019-05-15T07:52:32.863Z,4712.00
2019-05-15T07:53:32.846Z,4752.00
2019-05-15T07:54:32.858Z,4816.00
2019-05-15T07:55:32.826Z,4736.00
2019-05-15T07:56:32.823Z,4512.00
2019-05-15T07:57:32.810Z,4784.00
2019-05-15T07:58:32.807Z,4988.00
2019-05-15T07:59:32.791Z,5032.00
2019-05-15T08:00:33.134Z,5116.00
2019-05-15T08:01:32.764Z,4924.00
2019-05-15T08:02:32.767Z,4864.00
2019-05-15T08:03:32.743Z,4736.00
2019-05-15T08:04:33.146Z,4496.00
2019-05-15T08:05:32.723Z,4768.00
2019-05-15T08:06:32.711Z,4984.00
2019-05-15T08:07:32.699Z,5064.00
2019-05-15T08:08:32.694Z,5064.00
2019-05-15T08:09:32.712Z,5268.00
2019-05-15T08:10:32.667Z,6128.00
2019-05-15T08:11:32.650Z,6628.00
2019-05-15T08:12:32.664Z,6252.00
2019-05-15T08:13:32.637Z,6016.00
2019-05-15T08:14:32.642Z,6108.00
2019-05-15T08:15:32.607Z,6048.00
2019-05-15T08:16:32.596Z,5856.00
2019-05-15T08:17:32.584Z,5856.00
2019-05-15T08:18:32.608Z,5948.00
2019-05-15T08:19:33.942Z,6144.00
2019-05-15T08:20:32.576Z,6212.00
2019-05-15T08:21:32.590Z,6380.00
2019-05-15T08:22:32.607Z,6840.00
2019-05-15T08:23:32.524Z,6932.00
2019-05-15T08:24:32.518Z,6812.00
2019-05-15T08:25:35.436Z,6740.00
2019-05-15T08:26:32.494Z,6384.00
2019-05-15T08:27:32.475Z,6004.00
2019-05-15T08:28:32.464Z,6140.00
2019-05-15T08:29:32.478Z,6348.00
2019-05-15T08:30:32.441Z,6160.00
2019-05-15T08:31:32.437Z,5404.00
2019-05-15T08:32:32.422Z,5448.00
2019-05-15T08:33:32.423Z,5120.00
2019-05-15T08:34:32.428Z,4772.00
2019-05-15T08:35:32.393Z,4572.00
2019-05-15T08:36:32.380Z,4424.00
2019-05-15T08:37:32.388Z,4164.00
2019-05-15T08:38:32.362Z,3852.00
2019-05-15T08:39:32.353Z,3920.00
2019-05-15T08:40:32.334Z,4188.00
2019-05-15T08:41:32.327Z,4608.00
2019-05-15T08:42:32.460Z,4812.00
2019-05-15T08:43:32.298Z,4852.00
2019-05-15T08:44:32.295Z,4680.00
2019-05-15T08:45:32.325Z,4556.00
2019-05-15T08:46:32.345Z,4584.00
2019-05-15T08:47:32.254Z,4240.00
2019-05-15T08:48:32.970Z,4556.00
2019-05-15T08:49:32.237Z,7500.00
2019-05-15T08:50:32.280Z,6176.00
2019-05-15T08:51:32.274Z,4360.00
2019-05-15T08:52:32.270Z,3900.00
2019-05-15T08:53:32.334Z,3424.00
2019-05-15T08:54:32.197Z,3020.00
2019-05-15T08:55:32.204Z,3052.00
2019-05-15T08:56:32.212Z,2968.00
2019-05-15T08:57:32.363Z,2960.00
2019-05-15T08:58:32.130Z,3076.00
2019-05-15T08:59:32.139Z,3320.00
2019-05-15T09:00:32.193Z,3560.00
2019-05-15T09:01:32.150Z,3672.00
2019-05-15T09:02:32.247Z,3604.00
2019-05-15T09:03:32.155Z,4040.00
2019-05-15T09:04:35.024Z,4148.00
2019-05-15T09:05:32.064Z,4160.00
2019-05-15T09:06:32.320Z,4408.00
2019-05-15T09:07:32.031Z,4492.00
2019-05-15T09:08:32.092Z,4848.00
2019-05-15T09:09:32.112Z,4636.00
2019-05-15T09:10:32.220Z,4560.00
2019-05-15T09:11:32.049Z,4380.00
2019-05-15T09:12:32.039Z,3276.00
2019-05-15T09:13:31.973Z,3936.00
2019-05-15T09:14:31.952Z,3528.00
2019-05-15T09:15:32.015Z,3684.00
2019-05-15T09:16:31.963Z,3928.00
2019-05-15T09:17:31.988Z,3816.00
2019-05-15T09:18:32.034Z,3584.00
2019-05-15T09:19:31.962Z,4252.00
2019-05-15T09:20:31.897Z,4360.00
2019-05-15T09:21:31.898Z,4256.00
2019-05-15T09:22:31.879Z,4384.00
2019-05-15T09:23:31.908Z,4480.00
2019-05-15T09:24:31.843Z,3940.00
2019-05-15T09:25:31.838Z,3836.00
2019-05-15T09:26:35.286Z,3904.00
2019-05-15T09:27:31.815Z,4136.00
2019-05-15T09:28:31.832Z,4088.00
2019-05-15T09:29:31.885Z,4300.00
2019-05-15T09:30:31.774Z,4120.00
2019-05-15T09:31:31.775Z,4360.00
2019-05-15T09:32:31.757Z,3956.00
2019-05-15T09:33:31.751Z,3976.00
2019-05-15T09:34:46.661Z,3980.00
2019-05-15T09:35:32.720Z,3372.00
2019-05-15T09:36:31.731Z,3084.00
2019-05-15T09:37:33.635Z,3096.00
2019-05-15T09:38:31.709Z,3084.00
2019-05-15T09:39:31.677Z,2728.00
2019-05-15T09:40:42.266Z,3016.00
2019-05-15T09:41:32.654Z,3308.00
2019-05-15T09:42:31.643Z,3912.00
2019-05-15T09:43:31.629Z,3076.00
2019-05-15T09:44:31.620Z,3428.00
2019-05-15T09:45:31.615Z,4432.00
2019-05-15T09:46:31.615Z,4328.00
2019-05-15T09:47:31.593Z,3720.00
2019-05-15T09:48:31.579Z,3936.00
2019-05-15T09:49:31.568Z,4460.00
2019-05-15T09:50:31.567Z,4280.00
2019-05-15T09:51:31.578Z,4172.00
2019-05-15T09:52:31.527Z,3828.00
2019-05-15T09:53:31.534Z,3928.00
2019-05-15T09:54:31.510Z,4228.00
2019-05-15T09:55:31.500Z,4496.00
2019-05-15T09:56:31.578Z,4956.00
2019-05-15T09:57:31.487Z,5212.00
2019-05-15T09:58:31.481Z,5224.00
2019-05-15T09:59:31.470Z,5140.00
2019-05-15T10:00:31.444Z,6244.00
2019-05-15T10:01:31.443Z,6184.00
2019-05-15T10:02:31.421Z,6892.00
2019-05-15T10:03:31.411Z,7060.00
2019-05-15T10:04:31.448Z,6888.00
2019-05-15T10:05:31.381Z,6908.00
2019-05-15T10:06:31.391Z,7620.00
2019-05-15T10:07:31.361Z,7076.00
2019-05-15T10:08:31.364Z,6840.00
2019-05-15T10:09:31.363Z,12428.00
2019-05-15T10:10:31.342Z,9848.00
2019-05-15T10:11:31.325Z,7504.00
2019-05-15T10:12:34.860Z,6440.00
2019-05-15T10:13:31.310Z,6800.00
2019-05-15T10:14:31.285Z,7336.00
2019-05-15T10:15:31.283Z,9172.00
2019-05-15T10:16:31.270Z,9672.00
2019-05-15T10:17:31.256Z,21568.00
2019-05-15T10:18:31.237Z,13484.00
2019-05-15T10:19:31.228Z,16048.00
2019-05-15T10:20:31.261Z,10532.00
2019-05-15T10:21:32.512Z,14572.00
2019-05-15T10:22:31.194Z,11584.00
2019-05-15T10:23:31.193Z,13116.00
2019-05-15T10:24:31.173Z,12344.00
2019-05-15T10:25:31.166Z,19552.00
2019-05-15T10:26:31.159Z,18592.00
2019-05-15T10:27:31.210Z,11608.00
2019-05-15T10:28:31.135Z,11980.00
2019-05-15T10:29:31.119Z,12084.00
2019-05-15T10:30:31.107Z,8736.00
2019-05-15T10:31:31.107Z,9844.00
2019-05-15T10:32:31.162Z,5320.00
2019-05-15T10:33:31.073Z,3608.00
2019-05-15T10:34:31.081Z,4144.00
2019-05-15T10:35:31.833Z,5428.00
2019-05-15T10:36:31.044Z,3812.00
2019-05-15T10:37:31.040Z,3156.00
2019-05-15T10:38:31.070Z,2632.00
2019-05-15T10:39:31.010Z,2280.00
2019-05-15T10:40:31.001Z,2252.00
2019-05-15T10:41:30.991Z,2892.00
2019-05-15T10:42:30.996Z,2864.00
2019-05-15T10:43:30.978Z,3272.00
2019-05-15T10:44:30.986Z,4424.00
2019-05-15T10:45:30.950Z,4552.00
2019-05-15T10:46:30.943Z,4704.00
2019-05-15T10:47:30.954Z,5468.00
2019-05-15T10:48:30.931Z,6464.00
2019-05-15T10:49:30.909Z,7180.00
2019-05-15T10:50:30.894Z,7432.00
2019-05-15T10:51:30.878Z,10512.00
2019-05-15T10:52:30.888Z,8028.00
2019-05-15T10:53:30.872Z,9916.00
2019-05-15T10:54:30.849Z,8748.00
2019-05-15T10:55:30.852Z,11804.00
2019-05-15T10:56:30.823Z,15288.00
2019-05-15T10:57:30.825Z,15664.00
2019-05-15T10:58:30.804Z,15716.00
2019-05-15T10:59:30.792Z,16532.00
2019-05-15T11:00:30.783Z,18144.00
2019-05-15T11:01:30.775Z,13452.00
2019-05-15T11:02:30.763Z,14212.00
2019-05-15T11:03:34.610Z,14792.00
2019-05-15T11:04:30.738Z,17184.00
2019-05-15T11:05:40.518Z,13348.00
2019-05-15T11:06:31.735Z,10916.00
2019-05-15T11:07:30.724Z,12900.00
2019-05-15T11:08:30.694Z,9108.00
2019-05-15T11:09:30.686Z,9528.00
2019-05-15T11:10:30.692Z,9288.00
2019-05-15T11:11:30.667Z,6320.00
2019-05-15T11:12:30.702Z,11944.00
2019-05-15T11:13:30.652Z,13780.00
2019-05-15T11:14:30.631Z,12816.00
2019-05-15T11:15:30.616Z,11200.00
2019-05-15T11:16:30.644Z,10264.00
2019-05-15T11:17:31.581Z,10564.00
2019-05-15T11:18:30.922Z,6788.00
2019-05-15T11:19:35.965Z,11732.00
2019-05-15T11:20:31.593Z,9892.00
2019-05-15T11:21:30.553Z,8364.00
2019-05-15T11:22:30.554Z,8188.00
2019-05-15T11:23:30.533Z,8076.00
2019-05-15T11:24:32.387Z,8864.00
2019-05-15T11:25:30.523Z,9160.00
2019-05-15T11:26:33.637Z,16572.00
2019-05-15T11:27:31.443Z,21568.00
2019-05-15T11:28:32.293Z,21536.00
2019-05-15T11:29:30.465Z,20672.00
2019-05-15T11:30:30.467Z,31072.00
2019-05-15T11:31:30.463Z,33024.00
2019-05-15T11:32:30.469Z,22592.00
2019-05-15T11:33:30.429Z,11636.00
2019-05-15T11:34:30.408Z,20864.00
2019-05-15T11:35:30.403Z,6388.00
2019-05-15T11:36:30.424Z,8988.00
2019-05-15T11:37:30.379Z,18080.00
2019-05-15T11:38:30.369Z,19648.00
2019-05-15T11:39:30.392Z,6732.00
2019-05-15T11:40:30.342Z,7036.00
2019-05-15T11:41:30.338Z,14892.00
2019-05-15T11:42:30.328Z,17376.00
2019-05-15T11:43:30.314Z,14008.00
2019-05-15T11:44:30.314Z,6428.00
2019-05-15T11:45:30.286Z,4480.00
2019-05-15T11:46:30.294Z,5384.00
2019-05-15T11:47:30.271Z,4484.00
2019-05-15T11:48:30.273Z,8340.00
2019-05-15T11:49:30.242Z,5120.00
2019-05-15T11:50:30.240Z,4684.00
2019-05-15T11:51:30.222Z,3760.00
2019-05-15T11:52:30.219Z,3528.00
2019-05-15T11:53:30.218Z,3376.00
2019-05-15T11:54:30.193Z,3132.00
2019-05-15T11:55:30.179Z,3192.00
2019-05-15T11:56:30.167Z,3556.00
2019-05-15T11:57:42.347Z,3412.00
2019-05-15T11:58:31.165Z,3176.00
2019-05-15T11:59:30.298Z,3440.00
2019-05-15T12:00:30.469Z,4012.00
2019-05-15T12:01:30.114Z,5716.00
2019-05-15T12:02:30.103Z,5076.00
2019-05-15T12:03:30.127Z,4684.00
2019-05-15T12:04:34.060Z,3672.00
2019-05-15T12:05:30.084Z,3208.00
2019-05-15T12:06:30.091Z,3388.00
2019-05-15T12:07:30.047Z,3668.00
2019-05-15T12:08:30.041Z,4032.00
2019-05-15T12:09:30.025Z,4792.00
2019-05-15T12:10:30.015Z,5032.00
2019-05-15T12:11:36.764Z,4480.00
2019-05-15T12:12:32.055Z,4228.00
2019-05-15T12:13:29.991Z,4220.00
2019-05-15T12:14:29.970Z,3852.00
2019-05-15T12:15:29.960Z,3332.00
2019-05-15T12:16:29.955Z,3408.00
2019-05-15T12:17:29.975Z,3444.00
2019-05-15T12:18:29.937Z,3504.00
2019-05-15T12:19:29.916Z,3292.00
2019-05-15T12:20:29.907Z,3180.00
2019-05-15T12:21:29.905Z,3096.00
2019-05-15T12:22:29.922Z,2936.00
2019-05-15T12:23:29.893Z,2864.00
2019-05-15T12:24:35.934Z,2764.00
2019-05-15T12:25:31.884Z,2860.00
2019-05-15T12:26:29.840Z,2848.00
2019-05-15T12:27:29.848Z,2864.00
2019-05-15T12:28:29.980Z,2936.00